Time;durP1;ratioP1;P1;durP2;ratioP2;P2;SDS_P1;SDS_P2;PMS_P1;PMS_P2;Temp;Humidity;BMP_temperature;BMP_pressure;BME280_temperature;BME280_humidity;BME280_pressure;Samples;Min_cycle;Max_cycle;Signal;HPM_P1;HPM_P2
2022/12/15 00:40:40;;;;;;;16.05;9.73;;;;;;;;;;4927935;29;20055;-41
2022/12/15 00:43:10;;;;;;;21.25;9.95;;;;;;;;;;4930154;28;20507;-41
2022/12/15 00:48:20;;;;;;;16.70;9.00;;;;;;;;;;4930770;28;20077;-41
2022/12/15 00:50:51;;;;;;;16.00;9.20;;;;;;;;;;4931839;29;20683;-40
2022/12/15 01:20:35;;;;;;;18.02;8.80;;;;;;;;;;4933760;29;20391;-41
2022/12/15 01:23:01;;;;;;;14.68;7.88;;;;;;;;;;4929663;29;20020;-43
2022/12/15 01:25:26;;;;;;;14.57;8.05;;;;;;;;;;4931415;29;20020;-42
2022/12/15 01:27:52;;;;;;;15.13;7.68;;;;;;;;;;4930722;28;20091;-39
2022/12/15 01:30:26;;;;;;;11.98;8.23;;;;;;;;;;4928748;29;20123;-41
2022/12/15 01:32:52;;;;;;;15.02;8.77;;;;;;;;;;4931025;28;20040;-39
2022/12/15 01:35:18;;;;;;;15.40;8.23;;;;;;;;;;4934241;29;20030;-41
2022/12/15 01:37:44;;;;;;;15.63;8.55;;;;;;;;;;4931710;29;20054;-42
2022/12/15 01:42:59;;;;;;;16.95;9.48;;;;;;;;;;4929785;28;20063;-41
2022/12/15 01:45:27;;;;;;;22.20;10.25;;;;;;;;;;4927132;29;20475;-41
2022/12/15 01:48:05;;;;;;;14.63;9.02;;;;;;;;;;4932112;29;20032;-41
2022/12/15 01:50:38;;;;;;;14.93;9.23;;;;;;;;;;4932071;29;20074;-43
2022/12/15 01:53:03;;;;;;;18.63;8.77;;;;;;;;;;4931685;28;20032;-40
2022/12/15 01:55:30;;;;;;;15.82;9.63;;;;;;;;;;4929263;29;20032;-42
2022/12/15 01:58:00;;;;;;;15.30;8.52;;;;;;;;;;4926608;28;20470;-42
2022/12/15 02:00:26;;;;;;;15.65;8.75;;;;;;;;;;4930474;29;20047;-40
2022/12/15 02:02:53;;;;;;;11.30;7.45;;;;;;;;;;4928905;28;20024;-38
2022/12/15 02:05:20;;;;;;;8.77;5.97;;;;;;;;;;4927509;29;20032;-41
2022/12/15 02:07:45;;;;;;;10.95;6.30;;;;;;;;;;4932297;29;20490;-40
2022/12/15 02:10:11;;;;;;;8.77;5.85;;;;;;;;;;4930922;28;20080;-40
2022/12/15 02:12:47;;;;;;;12.57;5.53;;;;;;;;;;4930895;29;20028;-43
2022/12/15 02:15:41;;;;;;;8.85;5.30;;;;;;;;;;4927985;28;20050;-40
2022/12/15 02:18:20;;;;;;;6.18;4.50;;;;;;;;;;4928423;28;20028;-41
2022/12/15 02:20:55;;;;;;;5.60;4.40;;;;;;;;;;4927952;29;20194;-43
2022/12/15 02:23:55;;;;;;;14.88;6.38;;;;;;;;;;4933644;28;20083;-41
2022/12/15 02:26:58;;;;;;;11.10;4.85;;;;;;;;;;4908712;29;20491;-41
2022/12/15 02:29:29;;;;;;;;;;;;;;;;;;4893866;29;20064;-41
2022/12/15 02:32:02;;;;;;;8.98;4.90;;;;;;;;;;4888135;29;19930;-40
2022/12/15 02:34:53;;;;;;;8.00;4.53;;;;;;;;;;4884622;29;20053;-40
2022/12/15 02:37:35;;;;;;;9.35;4.90;;;;;;;;;;4889283;29;20049;-41
2022/12/15 02:40:01;;;;;;;10.57;4.88;;;;;;;;;;4890291;29;20070;-41
2022/12/15 02:42:30;;;;;;;6.20;4.57;;;;;;;;;;4888626;29;20045;-41
2022/12/15 02:45:00;;;;;;;5.68;4.35;;;;;;;;;;4887813;29;20040;-43
2022/12/15 02:47:57;;;;;;;7.03;4.47;;;;;;;;;;4889142;29;20056;-42
2022/12/15 02:50:43;;;;;;;4.35;3.95;;;;;;;;;;4886322;29;20049;-41
2022/12/15 02:53:26;;;;;;;7.75;4.40;;;;;;;;;;4887340;29;20047;-40
2022/12/15 02:56:24;;;;;;;4.38;3.58;;;;;;;;;;4884665;29;20381;-40
2022/12/15 02:59:05;;;;;;;4.80;3.78;;;;;;;;;;4888675;29;20080;-41
2022/12/15 03:01:41;;;;;;;4.75;3.33;;;;;;;;;;4896496;29;20411;-41
2022/12/15 03:04:09;;;;;;;6.47;3.65;;;;;;;;;;4908957;29;20055;-41
2022/12/15 03:06:35;;;;;;;6.97;3.30;;;;;;;;;;4909406;29;20115;-42
2022/12/15 03:09:00;;;;;;;6.20;2.92;;;;;;;;;;4916665;29;20465;-44
2022/12/15 03:11:26;;;;;;;6.75;3.22;;;;;;;;;;4919492;29;20038;-44
2022/12/15 03:13:52;;;;;;;3.05;2.72;;;;;;;;;;4919310;29;20043;-41
2022/12/15 03:16:18;;;;;;;4.95;2.50;;;;;;;;;;4925579;29;20031;-41
2022/12/15 03:18:44;;;;;;;3.15;2.42;;;;;;;;;;4929788;29;20036;-41
2022/12/15 03:21:09;;;;;;;3.28;2.67;;;;;;;;;;4928320;29;20036;-40
2022/12/15 03:23:34;;;;;;;2.47;2.28;;;;;;;;;;4920935;29;20036;-41
2022/12/15 03:26:00;;;;;;;6.10;3.00;;;;;;;;;;4907756;29;20054;-41
2022/12/15 03:28:25;;;;;;;3.15;2.60;;;;;;;;;;4907736;29;20185;-42
2022/12/15 03:30:51;;;;;;;5.10;2.17;;;;;;;;;;4909554;29;20032;-41
2022/12/15 03:33:16;;;;;;;5.75;2.55;;;;;;;;;;4910618;29;20087;-41
2022/12/15 03:35:42;;;;;;;4.55;2.45;;;;;;;;;;4932968;29;20554;-42
2022/12/15 03:38:07;;;;;;;2.20;2.00;;;;;;;;;;4925311;28;20023;-41
2022/12/15 03:40:33;;;;;;;2.88;1.90;;;;;;;;;;4934249;29;20087;-41
2022/12/15 03:42:58;;;;;;;4.32;2.03;;;;;;;;;;4929301;28;20035;-40
2022/12/15 03:45:25;;;;;;;3.20;1.98;;;;;;;;;;4928345;29;20114;-44
2022/12/15 03:47:51;;;;;;;2.03;1.80;;;;;;;;;;4928798;29;20046;-41
2022/12/15 03:50:20;;;;;;;1.92;1.80;;;;;;;;;;4927821;29;20044;-41
2022/12/15 03:52:50;;;;;;;3.95;1.77;;;;;;;;;;4929182;29;20055;-44
2022/12/15 03:55:15;;;;;;;3.80;1.95;;;;;;;;;;4927134;29;20988;-45
2022/12/15 03:57:41;;;;;;;5.43;1.80;;;;;;;;;;4928725;29;20024;-40
2022/12/15 04:00:07;;;;;;;2.28;2.08;;;;;;;;;;4929669;29;20054;-40
2022/12/15 04:02:32;;;;;;;2.55;2.35;;;;;;;;;;4928686;29;20026;-42
2022/12/15 04:04:58;;;;;;;2.28;1.73;;;;;;;;;;4926163;28;20039;-41
2022/12/15 04:07:23;;;;;;;2.88;1.88;;;;;;;;;;4930199;29;20059;-42
2022/12/15 04:09:48;;;;;;;2.22;1.80;;;;;;;;;;4926904;28;20050;-42
2022/12/15 04:12:14;;;;;;;2.67;1.80;;;;;;;;;;4926157;29;20032;-40
2022/12/15 04:14:42;;;;;;;2.10;1.90;;;;;;;;;;4924219;29;20055;-40
2022/12/15 04:17:09;;;;;;;2.13;1.70;;;;;;;;;;4928416;29;20027;-41
2022/12/15 04:22:18;;;;;;;1.80;1.60;;;;;;;;;;4929224;29;20046;-41
2022/12/15 05:33:09;;;;;;;2.90;1.95;;;;;;;;;;4916022;29;20156;-41
2022/12/15 05:35:34;;;;;;;1.60;1.50;;;;;;;;;;4908593;29;20828;-40
2022/12/15 05:37:59;;;;;;;5.47;1.50;;;;;;;;;;4910157;28;20061;-43
2022/12/15 05:40:25;;;;;;;2.80;1.70;;;;;;;;;;4914989;29;20496;-41
2022/12/15 05:42:50;;;;;;;2.97;1.50;;;;;;;;;;4904861;29;20032;-40
2022/12/15 05:45:15;;;;;;;2.67;1.38;;;;;;;;;;4911321;29;20074;-40
2022/12/15 05:47:41;;;;;;;4.85;2.03;;;;;;;;;;4907631;29;20419;-41
2022/12/15 05:50:07;;;;;;;1.30;1.20;;;;;;;;;;4908035;29;20050;-42
2022/12/15 05:52:32;;;;;;;3.85;1.52;;;;;;;;;;4909326;29;20028;-41
2022/12/15 05:54:58;;;;;;;1.70;1.60;;;;;;;;;;4929624;29;20454;-41
2022/12/15 05:57:23;;;;;;;1.95;1.55;;;;;;;;;;4926702;29;20075;-39
2022/12/15 05:59:48;;;;;;;2.15;1.75;;;;;;;;;;4914209;28;20072;-45
2022/12/15 06:02:14;;;;;;;1.77;1.67;;;;;;;;;;4912967;29;20111;-40
2022/12/15 06:04:39;;;;;;;2.08;1.88;;;;;;;;;;4909284;29;20427;-43
2022/12/15 06:07:04;;;;;;;2.70;1.42;;;;;;;;;;4906288;29;20033;-41
2022/12/15 06:09:30;;;;;;;7.18;2.00;;;;;;;;;;4912334;28;20510;-43
2022/12/15 06:11:55;;;;;;;1.90;1.55;;;;;;;;;;4910498;29;20029;-42
2022/12/15 06:14:20;;;;;;;5.13;1.60;;;;;;;;;;4903947;29;20467;-41
2022/12/15 06:16:46;;;;;;;3.40;1.45;;;;;;;;;;4904293;29;20047;-40
2022/12/15 06:19:11;;;;;;;4.43;1.40;;;;;;;;;;4899724;29;20044;-41
2022/12/15 06:21:37;;;;;;;3.75;1.45;;;;;;;;;;4903085;29;20066;-42
2022/12/15 06:24:04;;;;;;;2.38;1.88;;;;;;;;;;4910708;28;20036;-40
2022/12/15 06:26:32;;;;;;;1.92;1.25;;;;;;;;;;4903507;29;20139;-41
2022/12/15 06:29:01;;;;;;;1.90;1.65;;;;;;;;;;4901521;29;20047;-40
2022/12/15 06:31:33;;;;;;;2.42;1.50;;;;;;;;;;4905121;29;20041;-42
2022/12/15 06:34:04;;;;;;;2.58;2.08;;;;;;;;;;4929179;28;20518;-42
2022/12/15 06:36:29;;;;;;;2.38;1.40;;;;;;;;;;4894611;29;20420;-41
2022/12/15 06:38:59;;;;;;;1.88;1.27;;;;;;;;;;4912678;28;20058;-42
2022/12/15 06:41:25;;;;;;;2.22;1.35;;;;;;;;;;4899210;29;20028;-42
2022/12/15 06:43:54;;;;;;;2.83;1.10;;;;;;;;;;4901878;28;20049;-41
2022/12/15 06:46:21;;;;;;;1.60;1.30;;;;;;;;;;4899569;29;20122;-42
2022/12/15 06:48:47;;;;;;;2.65;0.93;;;;;;;;;;4899120;28;20055;-44
2022/12/15 06:51:14;;;;;;;1.73;1.20;;;;;;;;;;4904625;29;20040;-41
2022/12/15 06:53:41;;;;;;;3.47;1.30;;;;;;;;;;4901964;28;20567;-42
2022/12/15 06:56:20;;;;;;;3.80;1.55;;;;;;;;;;4906150;29;20040;-45
2022/12/15 06:58:47;;;;;;;1.88;0.95;;;;;;;;;;4911971;28;20036;-41
2022/12/15 07:01:14;;;;;;;2.95;1.25;;;;;;;;;;4927441;29;20082;-42
2022/12/15 07:03:40;;;;;;;1.35;0.98;;;;;;;;;;4924895;29;20110;-42
2022/12/15 07:06:08;;;;;;;2.78;1.00;;;;;;;;;;4925286;29;20042;-42
2022/12/15 07:08:34;;;;;;;2.90;1.23;;;;;;;;;;4925376;28;20418;-42
2022/12/15 07:11:02;;;;;;;1.67;1.00;;;;;;;;;;4919074;29;20047;-43
2022/12/15 07:13:28;;;;;;;2.70;1.10;;;;;;;;;;4918768;28;20568;-42
2022/12/15 07:15:53;;;;;;;1.40;1.00;;;;;;;;;;4924134;29;20032;-42
2022/12/15 07:18:19;;;;;;;2.28;1.00;;;;;;;;;;4921357;28;20051;-44
2022/12/15 07:20:44;;;;;;;0.77;0.77;;;;;;;;;;4922003;29;20031;-41
2022/12/15 07:23:10;;;;;;;1.83;1.10;;;;;;;;;;4926632;28;20039;-41
2022/12/15 07:25:35;;;;;;;1.95;1.00;;;;;;;;;;4929388;29;20163;-42
2022/12/15 07:28:01;;;;;;;5.57;1.40;;;;;;;;;;4929881;28;20070;-43
2022/12/15 07:30:26;;;;;;;1.55;1.20;;;;;;;;;;4924124;29;20044;-42
2022/12/15 07:32:52;;;;;;;2.80;1.25;;;;;;;;;;4921698;28;20032;-40
2022/12/15 07:35:17;;;;;;;1.75;1.25;;;;;;;;;;4927950;29;20055;-43
2022/12/15 07:37:43;;;;;;;2.58;1.40;;;;;;;;;;4929410;29;20087;-44
2022/12/15 07:40:09;;;;;;;2.20;1.42;;;;;;;;;;4932151;28;20052;-44
2022/12/15 07:42:35;;;;;;;3.63;1.40;;;;;;;;;;4929727;29;20028;-42
2022/12/15 07:45:01;;;;;;;3.55;1.33;;;;;;;;;;4927654;28;20043;-43
2022/12/15 07:47:27;;;;;;;4.63;1.55;;;;;;;;;;4926743;29;20028;-43
2022/12/15 07:49:53;;;;;;;1.70;1.08;;;;;;;;;;4927659;28;20106;-42
2022/12/15 07:52:19;;;;;;;2.72;1.52;;;;;;;;;;4929425;29;20434;-44
2022/12/15 07:54:44;;;;;;;0.77;0.77;;;;;;;;;;4927979;28;20546;-40
2022/12/15 07:57:10;;;;;;;9.27;3.80;;;;;;;;;;4928571;29;20035;-44
2022/12/15 07:59:35;;;;;;;5.50;2.58;;;;;;;;;;4926946;28;20044;-42
2022/12/15 08:02:05;;;;;;;2.40;1.50;;;;;;;;;;4928426;29;20035;-42
2022/12/15 08:04:30;;;;;;;4.90;2.88;;;;;;;;;;4926349;28;20047;-43
2022/12/15 08:06:57;;;;;;;3.47;1.88;;;;;;;;;;4928145;29;20039;-43
2022/12/15 08:09:22;;;;;;;11.48;3.40;;;;;;;;;;4929737;28;20044;-43
2022/12/15 08:11:49;;;;;;;3.97;1.65;;;;;;;;;;4928654;29;20483;-43
2022/12/15 08:14:15;;;;;;;2.22;1.70;;;;;;;;;;4928509;28;20055;-43
2022/12/15 08:16:40;;;;;;;3.10;1.80;;;;;;;;;;4931407;29;20036;-43
2022/12/15 08:19:09;;;;;;;3.95;1.42;;;;;;;;;;4928870;28;20044;-42
2022/12/15 08:21:35;;;;;;;5.38;1.80;;;;;;;;;;4925880;29;20090;-42
2022/12/15 08:24:00;;;;;;;3.03;1.50;;;;;;;;;;4926935;28;20127;-42
2022/12/15 08:26:26;;;;;;;4.65;1.90;;;;;;;;;;4928338;29;20506;-43
2022/12/15 08:28:51;;;;;;;3.65;1.63;;;;;;;;;;4925689;28;20087;-43
2022/12/15 08:31:20;;;;;;;3.45;1.73;;;;;;;;;;4923208;29;20032;-43
2022/12/15 08:33:46;;;;;;;2.72;1.50;;;;;;;;;;4925764;28;20088;-42
2022/12/15 08:36:13;;;;;;;4.88;1.38;;;;;;;;;;4931368;29;20035;-42
2022/12/15 08:38:40;;;;;;;3.97;1.70;;;;;;;;;;4923286;28;20040;-44
2022/12/15 08:41:18;;;;;;;3.72;1.40;;;;;;;;;;4925866;29;20032;-45
2022/12/15 08:43:45;;;;;;;4.90;2.03;;;;;;;;;;4925233;28;20422;-44
2022/12/15 08:46:11;;;;;;;2.65;1.58;;;;;;;;;;4925818;29;20043;-43
2022/12/15 08:48:37;;;;;;;5.05;1.90;;;;;;;;;;4925645;29;20066;-46
2022/12/15 08:51:02;;;;;;;3.00;1.35;;;;;;;;;;4927454;29;20025;-42
2022/12/15 08:53:27;;;;;;;4.93;2.55;;;;;;;;;;4933423;28;20036;-42
2022/12/15 08:55:53;;;;;;;2.10;1.70;;;;;;;;;;4927535;29;20482;-43
2022/12/15 08:58:19;;;;;;;5.50;1.15;;;;;;;;;;4925456;28;20051;-43
2022/12/15 09:00:45;;;;;;;3.95;1.60;;;;;;;;;;4930065;29;20110;-43
2022/12/15 09:03:10;;;;;;;4.68;2.35;;;;;;;;;;4929545;28;20024;-42
2022/12/15 09:05:37;;;;;;;1.95;1.40;;;;;;;;;;4931447;29;20047;-43
2022/12/15 09:08:03;;;;;;;2.70;1.67;;;;;;;;;;4928587;28;20032;-43
2022/12/15 09:10:29;;;;;;;2.95;1.27;;;;;;;;;;4931840;29;20046;-42
2022/12/15 09:12:54;;;;;;;2.17;1.00;;;;;;;;;;4930591;28;20094;-43
2022/12/15 09:15:19;;;;;;;1.95;0.80;;;;;;;;;;4926228;29;20040;-43
2022/12/15 09:17:46;;;;;;;0.90;0.90;;;;;;;;;;4930515;29;20200;-42
2022/12/15 09:20:12;;;;;;;2.17;0.80;;;;;;;;;;4930261;29;20060;-42
2022/12/15 09:22:37;;;;;;;1.42;0.77;;;;;;;;;;4930786;29;20110;-43
2022/12/15 09:25:03;;;;;;;3.80;2.33;;;;;;;;;;4926794;28;20814;-43
2022/12/15 09:27:29;;;;;;;5.38;2.65;;;;;;;;;;4927696;29;20044;-43
2022/12/15 09:29:56;;;;;;;2.03;1.40;;;;;;;;;;4925784;28;20036;-43
2022/12/15 09:32:22;;;;;;;6.60;2.60;;;;;;;;;;4927641;29;20071;-43
2022/12/15 09:34:49;;;;;;;3.60;2.13;;;;;;;;;;4933261;28;20607;-46
2022/12/15 09:37:15;;;;;;;5.63;2.25;;;;;;;;;;4930794;29;20035;-43
2022/12/15 09:39:40;;;;;;;1.92;1.75;;;;;;;;;;4929253;28;20139;-44
2022/12/15 09:42:22;;;;;;;5.90;1.90;;;;;;;;;;4929989;29;20043;-43
2022/12/15 09:44:54;;;;;;;2.45;1.70;;;;;;;;;;4929503;29;20094;-44
2022/12/15 09:47:33;;;;;;;2.42;1.75;;;;;;;;;;4930600;29;20533;-42
2022/12/15 09:50:07;;;;;;;3.42;2.55;;;;;;;;;;4931916;28;20051;-43
2022/12/15 09:52:48;;;;;;;5.53;1.80;;;;;;;;;;4929865;29;20394;-42
2022/12/15 09:55:21;;;;;;;7.40;2.00;;;;;;;;;;4934351;28;20050;-42
2022/12/15 09:57:52;;;;;;;;;;;;;;;;;;4932743;29;20040;-43
2022/12/15 10:00:23;;;;;;;4.25;2.70;;;;;;;;;;4926154;29;19922;-48
2022/12/15 10:02:54;;;;;;;3.58;1.80;;;;;;;;;;4932084;29;20043;-43
2022/12/15 10:05:25;;;;;;;1.67;1.23;;;;;;;;;;4928547;29;20044;-42
2022/12/15 10:07:50;;;;;;;2.10;1.90;;;;;;;;;;4932489;29;20054;-43
2022/12/15 10:10:45;;;;;;;1.95;1.75;;;;;;;;;;4926928;28;20048;-42
2022/12/15 10:13:28;;;;;;;2.40;1.83;;;;;;;;;;4927449;28;20047;-43
2022/12/15 10:16:01;;;;;;;3.03;2.22;;;;;;;;;;4930223;29;20035;-43
2022/12/15 10:18:49;;;;;;;;;;;;;;;;;;4931388;28;20086;-43
2022/12/15 10:21:14;;;;;;;1.77;1.42;;;;;;;;;;4929357;29;20022;-44
2022/12/15 10:23:40;;;;;;;2.08;1.40;;;;;;;;;;4930800;28;20137;-43
2022/12/15 10:26:24;;;;;;;6.78;1.80;;;;;;;;;;4929997;29;20447;-41
2022/12/15 10:29:11;;;;;;;2.20;1.48;;;;;;;;;;4928960;28;20561;-43
2022/12/15 10:31:48;;;;;;;2.10;1.40;;;;;;;;;;4926242;29;20047;-45
2022/12/15 10:34:30;;;;;;;3.45;2.10;;;;;;;;;;4930995;28;20071;-42
2022/12/15 10:36:56;;;;;;;2.38;1.83;;;;;;;;;;4932338;29;20150;-44
2022/12/15 10:39:37;;;;;;;2.78;0.95;;;;;;;;;;4928171;28;20035;-43
2022/12/15 10:42:12;;;;;;;3.75;1.90;;;;;;;;;;4925980;29;20042;-44
2022/12/15 10:44:40;;;;;;;1.50;1.40;;;;;;;;;;4927890;28;20043;-46
2022/12/15 10:47:13;;;;;;;1.25;1.15;;;;;;;;;;4925957;29;20071;-48
2022/12/15 10:49:39;;;;;;;3.42;1.17;;;;;;;;;;4928653;28;20050;-44
2022/12/15 10:52:05;;;;;;;3.08;1.50;;;;;;;;;;4930359;29;20035;-43
2022/12/15 10:54:44;;;;;;;2.10;1.90;;;;;;;;;;4929302;29;20187;-45
2022/12/15 10:57:18;;;;;;;0.75;0.50;;;;;;;;;;4927214;29;20051;-43
2022/12/15 10:59:44;;;;;;;0.40;0.40;;;;;;;;;;4929008;28;20048;-43
2022/12/15 11:02:32;;;;;;;1.70;0.70;;;;;;;;;;4931662;29;20094;-43
2022/12/15 11:05:14;;;;;;;7.25;0.98;;;;;;;;;;4928031;29;20694;-44
2022/12/15 11:08:02;;;;;;;0.80;0.80;;;;;;;;;;4929373;29;20043;-42
2022/12/15 11:12:50;;;;;;;0.95;0.95;;;;;;;;;;4926241;29;20039;-42
2022/12/15 11:13:20;;;;;;;2.17;0.80;;;;;;;;;;4931165;28;20038;-45
2022/12/15 11:15:50;;;;;;;3.03;0.75;;;;;;;;;;4930392;29;20430;-42
2022/12/15 11:18:28;;;;;;;2.35;0.35;;;;;;;;;;4931568;29;20758;-43
2022/12/15 11:21:21;;;;;;;1.60;0.40;;;;;;;;;;4933364;29;20035;-43
2022/12/15 11:24:15;;;;;;;0.63;0.30;;;;;;;;;;4929995;28;20063;-46
2022/12/15 11:27:01;;;;;;;0.82;0.60;;;;;;;;;;4931188;29;20036;-42
2022/12/15 11:29:40;;;;;;;1.25;0.93;;;;;;;;;;4928146;29;20050;-45
2022/12/15 11:32:05;;;;;;;2.08;1.10;;;;;;;;;;4934116;29;20371;-43
2022/12/15 11:34:37;;;;;;;1.67;1.08;;;;;;;;;;4931300;28;20071;-42
2022/12/15 11:37:02;;;;;;;2.28;0.73;;;;;;;;;;4923864;29;20034;-42
2022/12/15 11:39:57;;;;;;;1.80;0.93;;;;;;;;;;4929961;28;20040;-44
2022/12/15 11:42:49;;;;;;;2.00;1.23;;;;;;;;;;4927275;29;20824;-41
2022/12/15 11:45:20;;;;;;;5.50;1.55;;;;;;;;;;4925728;29;20058;-45
2022/12/15 11:47:51;;;;;;;3.00;1.53;;;;;;;;;;4932422;29;20106;-42
2022/12/15 11:50:32;;;;;;;3.63;2.20;;;;;;;;;;4928302;29;20043;-43
2022/12/15 11:53:14;;;;;;;8.50;2.47;;;;;;;;;;4926682;28;20071;-42
2022/12/15 11:55:45;;;;;;;5.88;2.00;;;;;;;;;;4926002;29;20066;-42
2022/12/15 11:58:52;;;;;;;8.10;2.00;;;;;;;;;;4925692;28;20486;-42
2022/12/15 12:01:52;;;;;;;5.20;2.50;;;;;;;;;;4926706;29;20091;-42
2022/12/15 12:04:28;;;;;;;9.35;2.13;;;;;;;;;;4924721;28;20076;-42
2022/12/15 12:07:38;;;;;;;9.02;2.47;;;;;;;;;;4928931;29;20698;-42
2022/12/15 12:10:20;;;;;;;7.65;2.25;;;;;;;;;;4928826;29;20400;-40
2022/12/15 12:13:01;;;;;;;19.85;2.70;;;;;;;;;;4926886;29;20027;-47
2022/12/15 12:15:58;;;;;;;46.53;4.95;;;;;;;;;;4925712;29;20076;-42
2022/12/15 12:18:28;;;;;;;57.65;8.55;;;;;;;;;;4926716;28;20050;-42
2022/12/15 12:21:09;;;;;;;55.65;7.90;;;;;;;;;;4927214;29;20071;-41
2022/12/15 12:24:02;;;;;;;55.03;7.70;;;;;;;;;;4927354;28;20071;-41
2022/12/15 12:26:28;;;;;;;64.20;10.35;;;;;;;;;;4927574;29;20039;-42
2022/12/15 12:29:10;;;;;;;69.45;10.63;;;;;;;;;;4923977;29;20042;-42
2022/12/15 12:32:19;;;;;;;75.35;9.88;;;;;;;;;;4927697;29;20050;-42
2022/12/15 12:34:55;;;;;;;83.70;11.90;;;;;;;;;;4909470;29;20099;-42
2022/12/15 12:37:29;;;;;;;69.78;11.75;;;;;;;;;;4910776;29;20036;-43
2022/12/15 12:40:00;;;;;;;71.20;10.40;;;;;;;;;;4912340;29;20796;-42
2022/12/15 12:42:26;;;;;;;67.38;11.50;;;;;;;;;;4911842;29;20515;-41
2022/12/15 12:44:51;;;;;;;71.78;11.10;;;;;;;;;;4910427;29;20055;-42
2022/12/15 12:47:23;;;;;;;58.22;8.52;;;;;;;;;;4910612;29;20063;-42
2022/12/15 12:49:51;;;;;;;;;;;;;;;;;;4910140;29;20041;-42
2022/12/15 12:52:23;;;;;;;70.35;7.80;;;;;;;;;;4911391;29;19919;-43
2022/12/15 12:54:56;;;;;;;59.97;7.78;;;;;;;;;;4911322;29;20055;-43
2022/12/15 12:57:31;;;;;;;82.70;9.25;;;;;;;;;;4911519;29;20062;-42
2022/12/15 13:00:23;;;;;;;70.55;8.38;;;;;;;;;;4911332;29;20546;-41
2022/12/15 13:02:51;;;;;;;;;;;;;;;;;;4912662;29;20051;-42
2022/12/15 13:05:30;;;;;;;91.65;10.82;;;;;;;;;;4914614;29;19923;-43
2022/12/15 13:08:18;;;;;;;83.35;8.80;;;;;;;;;;4914755;28;20114;-42
2022/12/15 13:10:46;;;;;;;81.32;9.80;;;;;;;;;;4934788;29;20039;-43
2022/12/15 13:13:17;;;;;;;55.72;9.07;;;;;;;;;;4928699;28;20071;-42
2022/12/15 13:15:45;;;;;;;85.72;9.68;;;;;;;;;;4931082;29;20039;-42
2022/12/15 13:18:21;;;;;;;96.05;10.95;;;;;;;;;;4930401;28;20043;-43
2022/12/15 13:20:49;;;;;;;86.40;9.18;;;;;;;;;;4928068;29;20095;-43
2022/12/15 13:23:20;;;;;;;78.32;7.82;;;;;;;;;;4929414;28;20044;-42
2022/12/15 13:26:09;;;;;;;46.67;7.40;;;;;;;;;;4929173;29;20031;-44
2022/12/15 13:28:35;;;;;;;52.90;6.78;;;;;;;;;;4927568;28;20490;-44
2022/12/15 13:31:15;;;;;;;58.35;8.18;;;;;;;;;;4930030;28;20067;-44
2022/12/15 13:33:49;;;;;;;58.88;7.88;;;;;;;;;;4929510;28;20155;-43
2022/12/15 13:36:36;;;;;;;77.57;10.20;;;;;;;;;;4928651;29;20035;-42
2022/12/15 13:39:11;;;;;;;63.55;7.72;;;;;;;;;;4928986;28;20182;-43
2022/12/15 13:41:57;;;;;;;62.30;8.68;;;;;;;;;;4925570;29;20031;-43
2022/12/15 13:44:22;;;;;;;74.55;7.72;;;;;;;;;;4922485;28;20118;-42
2022/12/15 13:46:51;;;;;;;56.67;9.10;;;;;;;;;;4930730;29;20111;-42
2022/12/15 13:49:46;;;;;;;54.22;8.00;;;;;;;;;;4929041;28;20131;-42
2022/12/15 13:52:26;;;;;;;64.60;7.95;;;;;;;;;;4927389;29;20047;-43
2022/12/15 13:55:10;;;;;;;61.13;8.07;;;;;;;;;;4929084;28;20075;-42
2022/12/15 13:57:53;;;;;;;54.85;6.70;;;;;;;;;;4929033;29;20553;-42
2022/12/15 14:00:19;;;;;;;72.28;9.05;;;;;;;;;;4932143;29;20044;-44
2022/12/15 14:02:44;;;;;;;66.82;8.38;;;;;;;;;;4927316;29;20114;-40
2022/12/15 14:05:17;;;;;;;67.97;7.95;;;;;;;;;;4928277;28;20127;-42
2022/12/15 14:07:49;;;;;;;70.50;8.35;;;;;;;;;;4929762;29;20028;-45
2022/12/15 14:10:39;;;;;;;87.47;8.77;;;;;;;;;;4931015;28;20106;-42
2022/12/15 14:13:29;;;;;;;68.90;7.72;;;;;;;;;;4926232;28;20039;-42
2022/12/15 14:15:58;;;;;;;62.85;7.65;;;;;;;;;;4927053;29;20062;-43
2022/12/15 14:18:33;;;;;;;66.38;8.00;;;;;;;;;;4934173;28;20054;-43
2022/12/15 14:21:00;;;;;;;52.92;6.78;;;;;;;;;;4929320;29;20031;-43
2022/12/15 14:23:39;;;;;;;63.50;6.82;;;;;;;;;;4926285;28;20040;-44
2022/12/15 14:26:12;;;;;;;47.80;6.03;;;;;;;;;;4927889;29;20064;-42
2022/12/15 14:28:40;;;;;;;65.45;6.68;;;;;;;;;;4926899;29;20102;-43
2022/12/15 14:31:13;;;;;;;45.65;5.78;;;;;;;;;;4929781;29;20030;-42
2022/12/15 14:33:40;;;;;;;;;;;;;;;;;;4930095;28;20070;-43
2022/12/15 14:36:09;;;;;;;63.28;7.88;;;;;;;;;;4928036;29;20309;-42
2022/12/15 14:38:51;;;;;;;53.45;6.28;;;;;;;;;;4929930;29;20526;-42
2022/12/15 14:41:23;;;;;;;58.40;7.22;;;;;;;;;;4924825;29;20087;-43
2022/12/15 14:43:51;;;;;;;72.53;8.30;;;;;;;;;;4928791;28;20131;-44
2022/12/15 14:46:20;;;;;;;50.25;7.82;;;;;;;;;;4930262;29;20483;-42
2022/12/15 14:48:53;;;;;;;54.00;8.05;;;;;;;;;;4927964;28;20431;-43
2022/12/15 14:51:19;;;;;;;68.18;8.70;;;;;;;;;;4927681;29;20035;-42
2022/12/15 14:53:48;;;;;;;53.45;7.03;;;;;;;;;;4930590;28;20043;-42
2022/12/15 14:56:19;;;;;;;42.17;6.65;;;;;;;;;;4924925;29;20094;-43
2022/12/15 14:59:02;;;;;;;68.20;8.05;;;;;;;;;;4927445;28;20140;-41
2022/12/15 15:01:34;;;;;;;69.05;10.60;;;;;;;;;;4928205;29;20035;-44
2022/12/15 15:04:02;;;;;;;64.45;11.57;;;;;;;;;;4924102;28;20048;-42
2022/12/15 15:06:38;;;;;;;67.55;9.52;;;;;;;;;;4924589;29;20067;-42
2022/12/15 15:09:21;;;;;;;61.25;8.80;;;;;;;;;;4929466;28;20121;-43
2022/12/15 15:11:49;;;;;;;80.55;10.32;;;;;;;;;;4932180;29;20170;-43
2022/12/15 15:14:46;;;;;;;55.00;9.60;;;;;;;;;;4924675;28;20979;-43
2022/12/15 15:17:34;;;;;;;63.92;9.32;;;;;;;;;;4926178;29;20154;-44
2022/12/15 15:20:03;;;;;;;68.97;11.35;;;;;;;;;;4924129;29;20046;-42
2022/12/15 15:22:42;;;;;;;83.07;17.90;;;;;;;;;;4926777;29;20036;-42
2022/12/15 15:25:26;;;;;;;95.90;15.00;;;;;;;;;;4924913;29;20040;-43
2022/12/15 15:28:20;;;;;;;67.65;10.18;;;;;;;;;;4927683;29;20052;-40
2022/12/15 15:30:59;;;;;;;93.43;12.02;;;;;;;;;;4924486;29;20039;-43
2022/12/15 15:33:25;;;;;;;81.07;11.05;;;;;;;;;;4920771;29;20569;-40
2022/12/15 15:36:01;;;;;;;116.32;25.35;;;;;;;;;;4920474;29;20995;-42
2022/12/15 15:38:36;;;;;;;74.80;13.48;;;;;;;;;;4922424;29;20059;-45
2022/12/15 15:41:15;;;;;;;81.47;17.42;;;;;;;;;;4923536;29;20050;-42
2022/12/15 15:43:40;;;;;;;66.55;11.98;;;;;;;;;;4918670;29;20584;-43
2022/12/15 15:46:14;;;;;;;64.13;12.93;;;;;;;;;;4921581;29;20047;-46
2022/12/15 15:48:47;;;;;;;47.70;9.40;;;;;;;;;;4923314;29;20134;-42
2022/12/15 15:51:13;;;;;;;40.45;8.82;;;;;;;;;;4923191;29;20039;-42
2022/12/15 15:53:39;;;;;;;73.75;19.55;;;;;;;;;;4924076;29;20982;-42
2022/12/15 15:56:07;;;;;;;22.90;5.97;;;;;;;;;;4925820;29;20039;-43
2022/12/15 15:58:34;;;;;;;39.33;8.73;;;;;;;;;;4925120;28;20112;-42
2022/12/15 16:01:00;;;;;;;41.42;10.00;;;;;;;;;;4928839;29;20031;-43
2022/12/15 16:03:26;;;;;;;50.63;16.17;;;;;;;;;;4926538;28;20043;-43
2022/12/15 16:05:52;;;;;;;31.65;8.88;;;;;;;;;;4927857;29;20032;-42
2022/12/15 16:08:21;;;;;;;24.40;7.78;;;;;;;;;;4923365;28;20043;-42
2022/12/15 16:10:47;;;;;;;24.65;4.95;;;;;;;;;;4926578;29;20040;-43
2022/12/15 16:13:18;;;;;;;16.35;5.22;;;;;;;;;;4925380;28;20055;-42
2022/12/15 16:15:44;;;;;;;19.50;6.93;;;;;;;;;;4926642;29;20058;-42
2022/12/15 16:18:09;;;;;;;21.75;8.05;;;;;;;;;;4930875;28;20059;-43
2022/12/15 16:20:36;;;;;;;47.90;12.25;;;;;;;;;;4927482;28;20497;-42
2022/12/15 16:23:06;;;;;;;35.80;11.55;;;;;;;;;;4925000;28;20028;-42
2022/12/15 16:25:38;;;;;;;52.22;12.85;;;;;;;;;;4929337;29;20539;-42
2022/12/15 16:28:16;;;;;;;36.92;11.18;;;;;;;;;;4929950;28;20028;-43
2022/12/15 16:30:42;;;;;;;53.53;8.77;;;;;;;;;;4925892;29;20035;-42
2022/12/15 16:33:08;;;;;;;41.88;10.55;;;;;;;;;;4928158;29;20036;-42
2022/12/15 16:35:35;;;;;;;39.03;8.73;;;;;;;;;;4924429;29;20419;-46
2022/12/15 16:38:03;;;;;;;39.92;8.30;;;;;;;;;;4927871;28;20035;-42
2022/12/15 16:40:28;;;;;;;50.72;15.10;;;;;;;;;;4922350;29;20046;-43
2022/12/15 16:42:58;;;;;;;70.65;17.88;;;;;;;;;;4923446;28;20035;-43
2022/12/15 16:45:27;;;;;;;57.78;21.05;;;;;;;;;;4924335;29;20048;-43
2022/12/15 16:47:54;;;;;;;63.25;24.15;;;;;;;;;;4921658;28;20029;-43
2022/12/15 16:50:29;;;;;;;63.05;23.33;;;;;;;;;;4919679;29;20054;-43
2022/12/15 16:52:55;;;;;;;58.38;18.83;;;;;;;;;;4920751;28;20040;-42
2022/12/15 16:55:26;;;;;;;37.00;10.80;;;;;;;;;;4919302;29;20636;-43
2022/12/15 16:57:56;;;;;;;39.75;10.38;;;;;;;;;;4923933;28;20032;-43
2022/12/15 17:00:23;;;;;;;30.90;9.05;;;;;;;;;;4922407;29;20023;-42
2022/12/15 17:02:49;;;;;;;30.58;6.95;;;;;;;;;;4924051;29;20140;-43
2022/12/15 17:05:15;;;;;;;23.58;5.93;;;;;;;;;;4923771;28;20123;-42
2022/12/15 17:07:42;;;;;;;34.72;6.28;;;;;;;;;;4927517;29;20042;-42
2022/12/15 17:10:16;;;;;;;33.60;7.20;;;;;;;;;;4918231;28;20048;-44
2022/12/15 17:12:42;;;;;;;36.42;7.30;;;;;;;;;;4919546;29;20691;-45
2022/12/15 17:15:38;;;;;;;37.13;8.82;;;;;;;;;;4928191;28;20044;-43
2022/12/15 17:18:04;;;;;;;39.60;14.48;;;;;;;;;;4917133;28;20044;-42
2022/12/15 17:20:30;;;;;;;46.45;15.07;;;;;;;;;;4925245;29;20054;-43
2022/12/15 17:23:03;;;;;;;48.78;16.20;;;;;;;;;;4921930;28;20033;-43
2022/12/15 17:25:36;;;;;;;;;;;;;;;;;;4928362;29;20051;-43
2022/12/15 17:28:02;;;;;;;45.88;10.27;;;;;;;;;;4927298;28;20440;-42